• Join FlightAware (Why Join?)
  • Login
  • US Flag 
07:40AM EDT


 

Airport Tracker/Info


-or-


 

Live Flight TrackerFlight Track Log ✈ ACA831 ✈ 18-Jun-2013 ✈ CYUL - CYYZ

Flight Track Log - Related Links

Times and Time Zones

All times are in EDT time to prevent confusion due to time zone crossing. See the ACA831 flight status page for this flight to view local times or setup timezone preferences in your user account.

Time Position Orientation Groundspeed Altitude Reporting Facility
EDT Latitude Longitude Course Direction KTS MPH feet Rate Location/Type
04:06PM 45.4570 -73.7480 306° West 9 10  Level FlightAware
04:07PM 45.4570 -73.7500 270° West 3 3  Level FlightAware
04:07PM 45.4570 -73.7510 270° West 7 8  Level FlightAware
04:09PM 45.4590 -73.7520 341° North 12 14  Level FlightAware
04:09PM 45.4610 -73.7520 360° North 14 16  Level FlightAware
04:10PM 45.4620 -73.7500 55° Northeast 14 16  Level FlightAware
04:10PM 45.4620 -73.7470 90° East 18 21  Level FlightAware
04:11PM 45.4600 -73.7400 112° Southeast 17 20  Level FlightAware
04:12PM 45.4590 -73.7390 145° Southeast 9 10  Level FlightAware
04:12PM 45.4600 -73.7370 55° Northeast 12 14  Level FlightAware
04:13PM 45.4610 -73.7360 35° Northeast 14 16 60 Level FlightAware
04:14PM 45.4640 -73.7320 43° Northeast 21 24 60 Level FlightAware
04:14PM 45.4660 -73.7300 35° Northeast 24 28 60 Level FlightAware
04:14PM 45.4680 -73.7270 46° Northeast 28 32 60 Level FlightAware
04:15PM 45.4690 -73.7250 55° Northeast 21 24 60 Level FlightAware
04:15PM 45.4720 -73.7210 43° Northeast 11 13 120 Level FlightAware
04:16PM 45.4710 -73.7190 125° Southeast 11 13 180 Level FlightAware
04:17PM 45.4680 -73.7230 223° Southwest 78 90 300 Level FlightAware
04:17PM 45.4570 -73.7360 220° Southwest 156 180 300 1,800 Climbing FlightAware
04:17PM 45.4480 -73.7470 221° Southwest 153 176 1,200 3,420 Climbing FlightAware
04:18PM 45.4310 -73.7670 220° Southwest 158 182 2,900 3,060 Climbing FlightAware
04:18PM 45.4140 -73.7870 220° Southwest 190 219 4,200 2,520 Climbing FlightAware
04:18PM 45.4090 -73.8000 241° Southwest 206 237 4,500 2,280 Climbing FlightAware
04:19PM 45.4090 -73.8280 270° West 229 264 5,400 2,820 Climbing FlightAware
04:19PM 45.4080 -73.8640 268° West 242 278 6,500 1,680 Climbing FlightAware
04:20PM 45.4090 -73.9140 272° West 259 298 6,900 600 Climbing FlightAware
04:20PM 45.4090 -73.9390 270° West 260 299 7,000 120 Climbing FlightAware
04:20PM 45.4090 -73.9890 270° West 260 299 7,000  Level FlightAware
04:21PM 45.4090 -74.0370 270° West 262 302 7,000  Level FlightAware
04:21PM 45.4090 -74.0890 270° West 262 302 7,000 60 Level FlightAware
04:22PM 45.4090 -74.1380 270° West 264 304 7,100 1,200 Climbing FlightAware
04:22PM 45.4090 -74.1740 270° West 263 303 8,100 3,660 Climbing FlightAware
04:22PM 45.4090 -74.2110 270° West 267 307 9,700 4,020 Climbing FlightAware
04:23PM 45.4090 -74.2900 270° West 306 352 12,100 3,780 Climbing FlightAware
04:24PM 45.4090 -74.3560 270° West 314 361 14,500 3,540 Climbing FlightAware
04:25PM 45.4030 -74.4690 266° West 354 407 17,100 3,360 Climbing FlightAware
04:25PM 45.3940 -74.5220 256° West 360 414 18,700 3,600 Climbing FlightAware
04:26PM 45.3720 -74.6570 257° West 373 429 22,100 3,540 Climbing FlightAware
04:27PM 45.3510 -74.7790 256° West 375 432 25,100 3,360 Climbing FlightAware
04:27PM 45.3360 -74.8680 257° West 378 435 27,100 2,760 Climbing FlightAware
04:28PM 45.3170 -74.9770 256° West 389 448 28,900 2,400 Climbing FlightAware
04:29PM 45.3000 -75.0770 256° West 395 455 30,500 2,760 Climbing FlightAware
04:29PM 45.2810 -75.1860 256° West 382 440 32,800 2,220 Climbing FlightAware
04:30PM 45.2660 -75.2740 256° West 387 445 33,500 840 Climbing FlightAware
04:31PM 45.2450 -75.3910 256° West 376 433 34,000 300 Climbing FlightAware
04:32PM 45.2280 -75.4860 256° West 369 425 34,000  Level FlightAware
04:32PM 45.2110 -75.5850 256° West 370 426 34,000  Level FlightAware
04:33PM 45.1980 -75.6540 255° West 374 430 34,000  Level FlightAware
04:34PM 45.1780 -75.7670 256° West 379 436 34,000  Level FlightAware
04:34PM 45.1570 -75.8800 255° West 385 443 34,000  Level FlightAware
04:34PM 45.1530 -75.9040 257° West 386 444 34,000  Level FlightAware
04:36PM 45.1200 -76.0860 256° West 389 448 34,000  Level FlightAware
04:37PM 45.0900 -76.2330 254° West 389 448 34,000  Level FlightAware
04:37PM 45.0550 -76.3310 243° Southwest 390 449 34,000  Level FlightAware
04:38PM 45.0190 -76.4210 241° Southwest 389 448 34,000  Level FlightAware
04:39PM 44.9710 -76.5420 241° Southwest 388 447 34,000  Level FlightAware
04:40PM 44.9360 -76.6290 240° Southwest 383 441 34,000  Level FlightAware
04:40PM 44.9020 -76.7130 240° Southwest 387 445 34,000  Level FlightAware
04:41PM 44.8650 -76.8060 241° Southwest 386 444 34,000  Level FlightAware
04:42PM 44.8250 -76.9040 240° Southwest 388 447 34,000  Level FlightAware
04:42PM 44.7920 -76.9880 241° Southwest 388 447 34,000  Level FlightAware
04:43PM 44.7510 -77.0890 240° Southwest 388 447 34,000  Level FlightAware
04:44PM 44.7190 -77.1680 240° Southwest 388 447 34,000  Level FlightAware
04:45PM 44.6490 -77.3410 240° Southwest 388 447 34,000  Level FlightAware
04:46PM 44.6130 -77.4290 240° Southwest 389 448 34,000  Level FlightAware
04:47PM 44.5740 -77.5260 241° Southwest 391 450 34,000  Level FlightAware
04:47PM 44.5350 -77.6200 240° Southwest 391 450 34,000  Level FlightAware
04:48PM 44.4970 -77.7120 240° Southwest 392 451 34,000  Level FlightAware
04:49PM 44.4590 -77.8030 240° Southwest 393 452 34,000  Level FlightAware
04:49PM 44.4270 -77.8800 240° Southwest 393 452 34,000 -300 Level FlightAware
04:51PM 44.3540 -78.0540 240° Southwest 397 457 33,500 -720 Descending FlightAware
04:51PM 44.3180 -78.1380 239° Southwest 402 463 32,600 -1,440 Descending FlightAware
04:52PM 44.2780 -78.2350 240° Southwest 401 461 31,600 -1,980 Descending FlightAware
04:53PM 44.2360 -78.3350 240° Southwest 403 464 29,800 -2,640 Descending FlightAware
04:53PM 44.1970 -78.4250 239° Southwest 399 459 27,900 -2,700 Descending FlightAware
04:54PM 44.1620 -78.5090 240° Southwest 393 452 26,200 -2,640 Descending FlightAware
04:55PM 44.1120 -78.6240 239° Southwest 386 444 23,800 -2,700 Descending FlightAware
04:56PM 44.0700 -78.7240 240° Southwest 379 436 21,800 -2,400 Descending FlightAware
04:56PM 44.0290 -78.8190 239° Southwest 366 421 20,200 -2,100 Descending FlightAware
04:57PM 43.9970 -78.8870 237° Southwest 354 407 19,000 -2,640 Descending FlightAware
04:58PM 43.9580 -78.9720 238° Southwest 344 396 16,700 -1,740 Descending FlightAware
04:58PM 43.9220 -79.0500 237° Southwest 304 350 16,400 -780 Descending FlightAware
04:59PM 43.8940 -79.1130 238° Southwest 296 341 15,600 -1,380 Descending FlightAware
05:00PM 43.8600 -79.1860 237° Southwest 293 337 14,500 -1,500 Descending FlightAware
05:00PM 43.8340 -79.2420 237° Southwest 291 335 13,600 -1,500 Descending FlightAware
05:01PM 43.8020 -79.3120 238° Southwest 288 331 12,500 -1,560 Descending FlightAware
05:02PM 43.7640 -79.3760 231° Southwest 296 341 11,300 -1,500 Descending FlightAware
05:03PM 43.7200 -79.4190 215° Southwest 294 338 10,400 -1,440 Descending FlightAware
05:03PM 43.7030 -79.4350 214° Southwest 293 337 10,000 -1,200 Descending FlightAware
05:03PM 43.6760 -79.4610 215° Southwest 286 329 9,600 -1,140 Descending FlightAware
05:04PM 43.6430 -79.4930 215° Southwest 277 319 9,000 -1,440 Descending FlightAware
05:04PM 43.6120 -79.5230 215° Southwest 265 305 8,200 -1,500 Descending FlightAware
05:04PM 43.6020 -79.5330 216° Southwest 257 296 8,000 -1,380 Descending FlightAware
05:05PM 43.5780 -79.5620 221° Southwest 244 281 7,300 -1,740 Descending FlightAware
05:05PM 43.5540 -79.5970 227° Southwest 243 280 6,300 -2,220 Descending FlightAware
05:06PM 43.5330 -79.6260 225° Southwest 249 287 5,300 -2,100 Descending FlightAware
05:06PM 43.5220 -79.6430 228° Southwest 248 285 4,900 -1,680 Descending FlightAware
05:07PM 43.5020 -79.6720 226° Southwest 244 281 4,200 -1,200 Descending FlightAware
05:07PM 43.4790 -79.7040 225° Southwest 230 265 3,800 -720 Descending FlightAware
05:07PM 43.4680 -79.7200 227° Southwest 222 255 3,700 -840 Descending FlightAware
05:08PM 43.4470 -79.7500 226° Southwest 217 250 3,200 -900 Descending FlightAware
05:08PM 43.4370 -79.7800 245° Southwest 208 239 2,900 -360 Descending FlightAware
05:09PM 43.4520 -79.8080 306° West 198 228 2,900  Level FlightAware
05:09PM 43.4660 -79.8080 360° North 202 232 2,900  Level FlightAware
05:09PM 43.4790 -79.8040 13° North 206 237 2,900  Level FlightAware
05:10PM 43.4980 -79.7990 11° North 203 234 2,900  Level FlightAware
05:10PM 43.5190 -79.7880 21° North 198 228 2,900  Level FlightAware
05:10PM 43.5410 -79.7760 22° Northeast 196 226 2,900 -180 Level FlightAware
05:11PM 43.5750 -79.7330 42° Northeast 186 214 2,700 -540 Descending FlightAware
05:12PM 43.5920 -79.7090 46° Northeast 179 206 2,200 -1,020 Descending FlightAware
05:12PM 43.6090 -79.6840 47° Northeast 166 191 1,700 -900 Descending FlightAware
05:13PM 43.6230 -79.6630 47° Northeast 148 170 1,300 -780 Descending FlightAware
05:13PM 43.6340 -79.6470 46° Northeast 142 163 1,000 -420 Descending FlightAware
05:14PM 43.6490 -79.6260 45° Northeast 145 167 900 -180 Descending FlightAware